Time;durP1;ratioP1;P1;durP2;ratioP2;P2;SDS_P1;SDS_P2;PMS_P1;PMS_P2;Temp;Humidity;BMP_temperature;BMP_pressure;BME280_temperature;BME280_humidity;BME280_pressure;Samples;Min_cycle;Max_cycle;Signal;HPM_P1;HPM_P2
2023/03/02 00:01:51;;;;;;;0.32;0.32;;;4.50;93.10;;;;;;5052128;28;20481;-68
2023/03/02 00:04:29;;;;;;;0.10;0.10;;;4.30;93.10;;;;;;5041162;28;20025;-68
2023/03/02 00:06:59;;;;;;;0.10;0.10;;;4.30;93.50;;;;;;5051643;28;20100;-69
2023/03/02 00:09:25;;;;;;;0.22;0.22;;;4.60;93.50;;;;;;5053272;28;20385;-68
2023/03/02 00:11:51;;;;;;;1.10;1.02;;;4.80;93.40;;;;;;5053234;28;20031;-68
2023/03/02 00:14:16;;;;;;;1.85;0.85;;;4.60;93.40;;;;;;5052843;28;20090;-68
2023/03/02 00:16:42;;;;;;;0.60;0.60;;;4.20;94.20;;;;;;5053044;28;20028;-68
2023/03/02 00:19:08;;;;;;;0.30;0.30;;;4.40;94.10;;;;;;5051598;28;20491;-69
2023/03/02 00:21:33;;;;;;;0.20;0.20;;;4.30;93.90;;;;;;5052622;28;20029;-69
2023/03/02 00:23:59;;;;;;;1.23;1.15;;;4.30;94.20;;;;;;5051680;28;20104;-69
2023/03/02 00:26:25;;;;;;;2.20;2.00;;;4.50;93.60;;;;;;5052916;28;20488;-68
2023/03/02 00:28:50;;;;;;;1.85;1.73;;;4.40;93.80;;;;;;5052142;28;20432;-68
2023/03/02 00:31:16;;;;;;;0.50;0.50;;;4.40;93.80;;;;;;5084878;28;20037;-68
2023/03/02 00:33:42;;;;;;;0.40;0.40;;;4.40;93.90;;;;;;5052825;28;20051;-68
2023/03/02 00:36:19;;;;;;;0.52;0.38;;;4.50;93.80;;;;;;5051384;28;20108;-68
2023/03/02 00:38:45;;;;;;;0.98;0.98;;;4.50;93.90;;;;;;5051206;28;20025;-68
2023/03/02 00:41:13;;;;;;;0.30;0.30;;;4.40;93.80;;;;;;5051538;28;20389;-68
2023/03/02 00:43:39;;;;;;;0.63;0.50;;;4.50;94.00;;;;;;5052407;28;20025;-68
2023/03/02 00:46:14;;;;;;;2.35;1.58;;;4.60;93.90;;;;;;5052341;28;20485;-68
2023/03/02 00:48:39;;;;;;;0.45;0.45;;;4.70;93.60;;;;;;5051164;28;20397;-68
2023/03/02 00:51:06;;;;;;;1.38;0.75;;;4.60;93.90;;;;;;5052474;28;20040;-68
2023/03/02 00:53:32;;;;;;;0.55;0.55;;;4.50;93.90;;;;;;5052649;28;20021;-68
2023/03/02 00:55:59;;;;;;;0.10;0.10;;;4.40;94.40;;;;;;5052542;28;20025;-68
2023/03/02 00:58:26;;;;;;;0.20;0.20;;;4.30;94.60;;;;;;5050867;28;20067;-68
2023/03/02 01:00:54;;;;;;;6.80;2.10;;;4.40;94.90;;;;;;5084853;28;20067;-68
2023/03/02 01:03:20;;;;;;;0.25;0.25;;;4.60;94.60;;;;;;5051454;28;20424;-68
2023/03/02 01:05:46;;;;;;;0.20;0.20;;;4.70;94.30;;;;;;5051013;28;20031;-68
2023/03/02 01:08:11;;;;;;;1.20;1.10;;;4.70;94.40;;;;;;5052501;28;20064;-68
2023/03/02 01:10:38;;;;;;;2.58;1.38;;;4.50;94.30;;;;;;5052193;28;20040;-68
2023/03/02 01:13:05;;;;;;;0.20;0.20;;;4.20;94.70;;;;;;5052292;28;20461;-68
2023/03/02 01:15:32;;;;;;;0.10;0.10;;;4.20;95.40;;;;;;5051081;28;20047;-68
2023/03/02 01:17:59;;;;;;;4.00;1.05;;;4.30;95.40;;;;;;5052195;28;20026;-69
2023/03/02 01:20:26;;;;;;;0.28;0.28;;;4.30;95.00;;;;;;5051013;28;20045;-68
2023/03/02 01:22:52;;;;;;;0.35;0.35;;;4.30;95.30;;;;;;5051137;28;20511;-69
2023/03/02 01:25:18;;;;;;;0.50;0.50;;;4.10;95.40;;;;;;5051093;28;20084;-68
2023/03/02 01:27:45;;;;;;;3.83;1.95;;;4.30;95.40;;;;;;5051890;28;20389;-68
2023/03/02 01:30:12;;;;;;;1.27;0.95;;;4.10;95.30;;;;;;5052205;28;20041;-68
2023/03/02 01:32:38;;;;;;;0.30;0.30;;;4.10;95.30;;;;;;5052153;28;20398;-68
2023/03/02 01:35:04;;;;;;;0.22;0.22;;;4.10;95.90;;;;;;5048920;28;20025;-68
2023/03/02 01:37:30;;;;;;;0.40;0.40;;;3.80;96.10;;;;;;5050830;28;20021;-68
2023/03/02 01:39:56;;;;;;;2.60;0.70;;;3.80;96.40;;;;;;5050674;28;20492;-68
2023/03/02 01:42:21;;;;;;;0.30;0.30;;;4.20;96.00;;;;;;5054450;28;20099;-68
2023/03/02 01:44:50;;;;;;;1.35;0.82;;;4.10;95.90;;;;;;5056061;28;20017;-68
2023/03/02 01:47:33;;;;;;;0.38;0.38;;;4.00;96.00;;;;;;5055925;28;20075;-68
2023/03/02 01:50:18;;;;;;;0.28;0.25;;;3.90;96.70;;;;;;5054470;28;20033;-68
2023/03/02 01:52:46;;;;;;;0.30;0.30;;;4.00;96.30;;;;;;5054099;28;20124;-69
2023/03/02 01:55:14;;;;;;;0.13;0.13;;;4.00;96.80;;;;;;5054482;28;20025;-68
2023/03/02 01:57:45;;;;;;;0.13;0.13;;;4.00;96.40;;;;;;5054552;28;20474;-68
2023/03/02 02:00:18;;;;;;;0.30;0.30;;;4.00;96.50;;;;;;5087807;28;20031;-68
2023/03/02 02:02:45;;;;;;;0.85;0.85;;;4.00;96.80;;;;;;5055331;28;20043;-68
2023/03/02 02:05:16;;;;;;;0.30;0.30;;;3.80;96.70;;;;;;5055864;28;20020;-68
2023/03/02 02:07:43;;;;;;;0.17;0.17;;;3.60;97.10;;;;;;5054351;28;20112;-68
2023/03/02 02:10:09;;;;;;;0.40;0.40;;;3.40;97.50;;;;;;5037177;28;20025;-68
2023/03/02 02:12:35;;;;;;;0.10;0.10;;;3.30;97.80;;;;;;5087625;28;20031;-68
2023/03/02 02:15:01;;;;;;;0.63;0.63;;;3.40;97.90;;;;;;5055273;28;20025;-68
2023/03/02 02:17:28;;;;;;;0.68;0.68;;;3.40;97.60;;;;;;5055595;28;20021;-68
2023/03/02 02:20:04;;;;;;;0.47;0.47;;;3.20;98.20;;;;;;5055659;28;20474;-69
2023/03/02 02:22:30;;;;;;;0.25;0.25;;;3.30;98.10;;;;;;5055439;28;20033;-69
2023/03/02 02:24:59;;;;;;;3.78;1.75;;;3.40;98.10;;;;;;5053448;28;20051;-69
2023/03/02 02:27:32;;;;;;;0.63;0.63;;;3.30;98.30;;;;;;5055300;28;20025;-68
2023/03/02 02:30:00;;;;;;;0.50;0.50;;;3.30;98.50;;;;;;5037043;28;20033;-68
2023/03/02 02:32:30;;;;;;;0.77;0.35;;;3.30;98.60;;;;;;5053998;28;20025;-68
2023/03/02 02:35:17;;;;;;;0.10;0.10;;;3.40;98.20;;;;;;5087057;28;20424;-68
2023/03/02 02:37:51;;;;;;;0.22;0.22;;;3.30;98.40;;;;;;5053807;28;20017;-69
2023/03/02 02:40:22;;;;;;;0.40;0.40;;;3.30;98.60;;;;;;5053351;28;20481;-68
2023/03/02 02:42:50;;;;;;;;;;;3.00;98.70;;;;;;5054263;28;20068;-68
2023/03/02 02:45:25;;;;;;;1.05;0.98;;;3.00;99.20;;;;;;5053551;28;19915;-68
2023/03/02 02:47:53;;;;;;;0.82;0.80;;;2.80;99.60;;;;;;5054692;28;20029;-68
2023/03/02 02:50:27;;;;;;;2.78;1.23;;;2.90;99.90;;;;;;5054438;28;20075;-68
2023/03/02 02:53:01;;;;;;;0.90;0.85;;;3.00;99.70;;;;;;5052544;28;20435;-68
2023/03/02 02:55:28;;;;;;;0.20;0.20;;;2.90;99.90;;;;;;5053391;28;20054;-68
2023/03/02 02:57:58;;;;;;;3.40;2.58;;;2.90;99.90;;;;;;5053274;28;20020;-68
2023/03/02 03:00:25;;;;;;;0.20;0.20;;;2.80;99.90;;;;;;5054434;28;20057;-68
2023/03/02 03:02:57;;;;;;;0.38;0.38;;;2.70;99.90;;;;;;5054588;28;20033;-68
2023/03/02 03:05:23;;;;;;;0.65;0.65;;;2.60;99.90;;;;;;5053110;28;20067;-67
2023/03/02 03:07:49;;;;;;;3.78;1.83;;;2.60;99.90;;;;;;5052716;28;20044;-67
2023/03/02 03:10:38;;;;;;;2.75;1.25;;;2.60;99.90;;;;;;5036511;28;20032;-68
2023/03/02 03:13:08;;;;;;;1.55;1.45;;;2.70;99.90;;;;;;5052865;28;20107;-68
2023/03/02 03:15:34;;;;;;;1.38;1.27;;;2.70;99.90;;;;;;5052959;28;20025;-68
2023/03/02 03:18:00;;;;;;;0.28;0.28;;;2.70;99.90;;;;;;5086243;28;20040;-67
2023/03/02 03:20:27;;;;;;;0.43;0.38;;;2.60;99.90;;;;;;5052853;28;20110;-67
2023/03/02 03:22:53;;;;;;;2.42;1.95;;;2.70;99.90;;;;;;5052576;28;20032;-67
2023/03/02 03:25:21;;;;;;;0.57;0.57;;;2.70;99.90;;;;;;5052616;28;20025;-68
2023/03/02 03:27:48;;;;;;;2.97;0.43;;;2.80;99.90;;;;;;5053002;28;20040;-68
2023/03/02 03:30:15;;;;;;;2.35;1.10;;;2.80;99.90;;;;;;5052209;28;20057;-67
2023/03/02 03:32:42;;;;;;;2.75;0.43;;;2.70;99.90;;;;;;5086309;28;20029;-67
2023/03/02 03:35:10;;;;;;;1.05;0.60;;;2.80;99.90;;;;;;5052294;28;20044;-68
2023/03/02 03:37:39;;;;;;;3.53;1.25;;;2.80;99.90;;;;;;5052239;28;20035;-68
2023/03/02 03:40:06;;;;;;;2.40;0.65;;;2.80;99.90;;;;;;5035542;28;20029;-68
2023/03/02 03:42:32;;;;;;;2.15;1.48;;;2.80;99.90;;;;;;5052553;28;20039;-68
2023/03/02 03:45:00;;;;;;;0.20;0.20;;;2.50;99.90;;;;;;5052412;28;20023;-69
2023/03/02 03:47:26;;;;;;;0.32;0.32;;;2.60;99.90;;;;;;5052171;28;20025;-67
2023/03/02 03:49:52;;;;;;;0.20;0.20;;;2.50;99.90;;;;;;5085676;28;20039;-67
2023/03/02 03:52:29;;;;;;;1.25;1.08;;;2.50;99.90;;;;;;5053482;28;20482;-67
2023/03/02 03:54:59;;;;;;;2.42;2.17;;;2.50;99.90;;;;;;5052174;28;20075;-68
2023/03/02 03:57:27;;;;;;;5.18;2.55;;;2.40;99.90;;;;;;5053733;28;20385;-68
2023/03/02 03:59:53;;;;;;;11.07;2.55;;;2.40;99.90;;;;;;5085353;28;20028;-69
2023/03/02 04:02:20;;;;;;;0.20;0.20;;;2.30;99.90;;;;;;5053334;28;20429;-69
2023/03/02 04:04:46;;;;;;;1.55;0.55;;;2.30;99.90;;;;;;5051530;28;20024;-68
2023/03/02 04:07:15;;;;;;;1.02;0.65;;;2.10;99.90;;;;;;5085542;28;20029;-68
2023/03/02 04:09:43;;;;;;;0.20;0.20;;;2.00;99.90;;;;;;5052009;28;20115;-68
2023/03/02 04:12:11;;;;;;;0.30;0.30;;;2.00;99.90;;;;;;5051937;28;20390;-68
2023/03/02 04:14:39;;;;;;;0.38;0.38;;;2.20;99.90;;;;;;5052028;28;20047;-68
2023/03/02 04:17:05;;;;;;;1.08;1.05;;;2.20;99.90;;;;;;5051701;28;20029;-69
2023/03/02 04:19:34;;;;;;;3.33;1.42;;;2.20;99.90;;;;;;5085464;28;20039;-68
2023/03/02 04:22:02;;;;;;;0.93;0.93;;;2.20;99.90;;;;;;5051073;28;20477;-68
2023/03/02 04:24:28;;;;;;;0.93;0.93;;;2.20;99.90;;;;;;5051976;28;20448;-68
2023/03/02 04:26:57;;;;;;;0.10;0.10;;;2.20;99.90;;;;;;5051466;28;20025;-69
2023/03/02 04:29:23;;;;;;;0.20;0.20;;;2.20;99.90;;;;;;5085162;28;20174;-68
2023/03/02 04:31:50;;;;;;;0.60;0.60;;;1.90;99.90;;;;;;5051459;28;20071;-69
2023/03/02 04:34:17;;;;;;;0.65;0.65;;;2.00;99.90;;;;;;5085104;28;20028;-69
2023/03/02 04:36:44;;;;;;;0.20;0.20;;;2.20;99.90;;;;;;5051443;28;20033;-69
2023/03/02 04:39:15;;;;;;;1.48;0.98;;;2.20;99.90;;;;;;5051479;28;20028;-69
2023/03/02 04:41:45;;;;;;;5.13;2.15;;;2.20;99.90;;;;;;5084827;28;20025;-69
2023/03/02 04:44:12;;;;;;;2.08;1.20;;;2.10;99.90;;;;;;5052739;28;20349;-69
2023/03/02 04:46:38;;;;;;;0.35;0.35;;;2.20;99.90;;;;;;5052506;28;20362;-69
2023/03/02 04:49:04;;;;;;;0.25;0.25;;;2.20;99.90;;;;;;5052087;28;20036;-69
2023/03/02 04:51:36;;;;;;;11.88;3.30;;;2.20;99.90;;;;;;5052638;28;20041;-68
2023/03/02 04:54:05;;;;;;;1.38;1.27;;;2.00;99.90;;;;;;5052650;28;20025;-68
2023/03/02 04:56:31;;;;;;;1.67;1.40;;;2.10;99.90;;;;;;5051109;28;20116;-68
2023/03/02 04:58:57;;;;;;;0.60;0.60;;;1.90;99.90;;;;;;5052668;28;20025;-69
2023/03/02 05:01:23;;;;;;;5.78;2.95;;;1.90;99.90;;;;;;5052776;28;20052;-69
2023/03/02 05:03:49;;;;;;;4.43;3.10;;;2.00;99.90;;;;;;5052643;28;20033;-69
2023/03/02 05:06:15;;;;;;;1.65;0.73;;;1.90;99.90;;;;;;5052247;28;20361;-69
2023/03/02 05:08:42;;;;;;;5.15;2.80;;;2.00;99.90;;;;;;5052467;28;20033;-69
2023/03/02 05:11:24;;;;;;;1.73;1.63;;;1.90;99.90;;;;;;5052151;28;20366;-68
2023/03/02 05:13:53;;;;;;;0.40;0.40;;;1.90;99.90;;;;;;5034707;28;20405;-69
2023/03/02 05:16:19;;;;;;;0.43;0.43;;;1.80;99.90;;;;;;5056238;28;20493;-69
2023/03/02 05:18:46;;;;;;;6.40;1.75;;;1.90;99.90;;;;;;5055750;28;20466;-69
2023/03/02 05:21:14;;;;;;;1.50;1.40;;;2.10;99.90;;;;;;5056262;28;20043;-70
2023/03/02 05:23:41;;;;;;;5.35;1.02;;;2.20;99.90;;;;;;5055038;28;20103;-69
2023/03/02 05:26:07;;;;;;;10.27;5.28;;;2.10;99.90;;;;;;5056303;28;20037;-68
2023/03/02 05:28:33;;;;;;;9.35;5.90;;;2.10;99.90;;;;;;5055795;28;20032;-69
2023/03/02 05:30:59;;;;;;;3.10;1.95;;;1.90;99.90;;;;;;5054902;28;20413;-69
2023/03/02 05:33:25;;;;;;;2.10;1.35;;;2.00;99.90;;;;;;5037679;28;20044;-68
2023/03/02 05:35:51;;;;;;;3.10;2.90;;;2.20;99.90;;;;;;5056222;28;20025;-68
2023/03/02 05:38:17;;;;;;;1.50;0.85;;;2.30;99.90;;;;;;5054413;28;20386;-68
2023/03/02 05:40:42;;;;;;;1.23;1.17;;;2.30;99.90;;;;;;5055917;28;20112;-68
2023/03/02 05:43:12;;;;;;;9.75;4.47;;;2.10;99.90;;;;;;5055761;28;20025;-69
2023/03/02 05:45:38;;;;;;;9.50;5.10;;;2.10;99.90;;;;;;5054691;28;20040;-69
2023/03/02 05:48:04;;;;;;;4.55;3.55;;;2.10;99.90;;;;;;5055281;28;20021;-69
2023/03/02 05:50:30;;;;;;;1.67;1.58;;;2.10;99.90;;;;;;5055593;28;20052;-69
2023/03/02 05:52:58;;;;;;;2.13;1.15;;;2.20;99.90;;;;;;5055467;28;20110;-68
2023/03/02 05:55:25;;;;;;;7.70;3.88;;;2.20;99.90;;;;;;5055776;28;20017;-69
2023/03/02 05:57:51;;;;;;;7.70;3.55;;;2.10;99.90;;;;;;5055464;28;20116;-68
2023/03/02 06:00:18;;;;;;;5.25;3.53;;;2.10;99.90;;;;;;5055571;28;20021;-68
2023/03/02 06:02:44;;;;;;;3.97;3.60;;;2.10;99.90;;;;;;5054903;28;20029;-68
2023/03/02 06:05:15;;;;;;;15.93;8.32;;;2.10;99.90;;;;;;5055670;28;20067;-69
2023/03/02 06:07:42;;;;;;;2.50;1.08;;;2.00;99.90;;;;;;5055450;28;20072;-69
2023/03/02 06:10:09;;;;;;;11.30;3.55;;;2.00;99.90;;;;;;5054979;28;20037;-69
2023/03/02 06:12:35;;;;;;;5.55;3.92;;;2.00;99.90;;;;;;5055087;28;20009;-69
2023/03/02 06:15:06;;;;;;;7.03;4.32;;;2.10;99.90;;;;;;5055276;28;20103;-69
2023/03/02 06:17:32;;;;;;;24.65;7.65;;;2.00;99.90;;;;;;5053968;28;20033;-69
2023/03/02 06:19:57;;;;;;;0.70;0.70;;;2.00;99.90;;;;;;5055017;28;20506;-68
2023/03/02 06:22:23;;;;;;;3.65;3.17;;;2.10;99.90;;;;;;5041058;28;20123;-68
2023/03/02 06:24:49;;;;;;;3.85;3.50;;;2.10;99.90;;;;;;5050513;28;20086;-67
2023/03/02 06:27:15;;;;;;;16.02;7.30;;;2.20;99.90;;;;;;5043295;28;20426;-74
2023/03/02 06:29:41;;;;;;;12.68;3.38;;;2.20;99.90;;;;;;5051935;28;20037;-68
2023/03/02 06:32:07;;;;;;;13.68;3.65;;;2.20;99.90;;;;;;5059128;28;20039;-68
2023/03/02 06:34:33;;;;;;;3.55;3.35;;;2.20;99.90;;;;;;5058967;28;20124;-67
2023/03/02 06:36:58;;;;;;;4.45;3.58;;;2.20;99.90;;;;;;5053307;28;20389;-67
2023/03/02 06:39:24;;;;;;;2.30;1.08;;;2.10;99.90;;;;;;5049826;28;20545;-70
2023/03/02 06:41:50;;;;;;;4.95;1.63;;;2.00;99.90;;;;;;5093522;28;20077;-71
2023/03/02 06:44:17;;;;;;;8.02;5.10;;;2.10;99.90;;;;;;5062698;28;20486;-69
2023/03/02 06:46:44;;;;;;;0.85;0.85;;;2.10;99.90;;;;;;5061782;28;20529;-68
2023/03/02 06:49:10;;;;;;;6.20;3.30;;;2.00;99.90;;;;;;5058972;28;20020;-71
2023/03/02 06:51:36;;;;;;;10.88;3.13;;;1.90;99.90;;;;;;5050325;28;20029;-67
2023/03/02 06:54:03;;;;;;;7.30;3.25;;;1.90;99.90;;;;;;5049495;28;20033;-69
2023/03/02 06:56:29;;;;;;;10.32;5.93;;;1.90;99.90;;;;;;5050283;28;20366;-72
2023/03/02 06:58:55;;;;;;;10.38;4.78;;;1.90;99.90;;;;;;5049537;28;20028;-71
2023/03/02 07:01:20;;;;;;;5.03;4.57;;;1.80;99.90;;;;;;5049451;28;20017;-71
2023/03/02 07:03:46;;;;;;;1.60;1.50;;;1.80;99.90;;;;;;5050437;28;20078;-70
2023/03/02 07:06:12;;;;;;;6.10;3.38;;;1.80;99.90;;;;;;5050714;28;20067;-72
2023/03/02 07:08:39;;;;;;;3.95;3.58;;;1.80;99.90;;;;;;5050260;28;20097;-70
2023/03/02 07:11:10;;;;;;;19.20;7.63;;;1.90;99.90;;;;;;5050103;28;20049;-71
2023/03/02 07:13:37;;;;;;;4.75;4.25;;;1.90;99.90;;;;;;5050641;28;20025;-72
2023/03/02 07:16:11;;;;;;;4.18;3.78;;;1.80;99.90;;;;;;5048491;28;20043;-72
2023/03/02 07:18:37;;;;;;;13.20;7.22;;;1.80;99.90;;;;;;5049627;28;20534;-72
2023/03/02 07:21:03;;;;;;;5.80;3.80;;;1.90;99.90;;;;;;5047771;28;20075;-72
2023/03/02 07:23:29;;;;;;;5.25;4.15;;;1.90;99.90;;;;;;5047668;28;20021;-71
2023/03/02 07:25:55;;;;;;;8.77;1.95;;;1.90;99.90;;;;;;5049502;28;20024;-74
2023/03/02 07:28:23;;;;;;;7.18;3.85;;;1.90;99.90;;;;;;5045873;28;20478;-69
2023/03/02 07:30:49;;;;;;;13.65;7.20;;;1.90;99.90;;;;;;5049899;28;20033;-69
2023/03/02 07:33:16;;;;;;;3.22;1.58;;;1.90;99.90;;;;;;5052394;28;20029;-72
2023/03/02 07:35:41;;;;;;;3.83;2.10;;;1.90;99.90;;;;;;5050231;28;20096;-74
2023/03/02 07:38:07;;;;;;;6.63;1.00;;;2.10;99.90;;;;;;5053520;28;20434;-71
2023/03/02 07:40:33;;;;;;;20.42;8.68;;;2.10;99.90;;;;;;5085699;28;20473;-70
2023/03/02 07:42:59;;;;;;;4.82;4.20;;;1.90;99.90;;;;;;5053526;28;20024;-70
2023/03/02 07:45:25;;;;;;;6.22;3.50;;;1.90;99.90;;;;;;5053541;28;20389;-68
2023/03/02 07:47:51;;;;;;;4.32;2.78;;;2.00;99.90;;;;;;5051582;28;20570;-76
2023/03/02 07:50:17;;;;;;;18.77;8.68;;;2.00;99.90;;;;;;5041837;28;20073;-73
2023/03/02 07:52:43;;;;;;;24.40;9.13;;;2.00;99.90;;;;;;5049653;28;20072;-73
2023/03/02 07:55:09;;;;;;;7.15;3.70;;;2.10;99.90;;;;;;5053361;28;20059;-73
2023/03/02 07:57:35;;;;;;;9.07;4.32;;;2.10;99.90;;;;;;5053021;28;20025;-74
2023/03/02 08:00:01;;;;;;;25.80;9.57;;;2.10;99.90;;;;;;5052050;28;20024;-73
2023/03/02 08:02:39;;;;;;;17.10;7.72;;;2.00;99.90;;;;;;5053384;28;20040;-71
2023/03/02 08:05:05;;;;;;;12.00;6.43;;;2.10;99.90;;;;;;5053355;28;20028;-75
2023/03/02 08:07:31;;;;;;;19.02;8.15;;;2.30;99.90;;;;;;5053347;28;20025;-74
2023/03/02 08:09:57;;;;;;;9.30;5.50;;;2.40;99.90;;;;;;5052934;28;20029;-75
2023/03/02 08:12:23;;;;;;;4.57;4.05;;;2.40;99.90;;;;;;5052912;28;20512;-73
2023/03/02 08:14:48;;;;;;;2.78;2.05;;;2.60;99.90;;;;;;5052893;28;20025;-71
2023/03/02 08:17:14;;;;;;;8.05;5.07;;;2.70;99.90;;;;;;5053066;28;20094;-72
2023/03/02 08:19:40;;;;;;;2.50;2.30;;;2.80;99.90;;;;;;5052771;28;20082;-71
2023/03/02 08:22:06;;;;;;;2.05;1.55;;;3.00;99.90;;;;;;5052622;28;20397;-73
2023/03/02 08:24:32;;;;;;;5.07;4.65;;;3.10;99.90;;;;;;5053142;28;20028;-75
2023/03/02 08:27:01;;;;;;;1.85;1.75;;;3.30;99.90;;;;;;5051084;28;20017;-73
2023/03/02 08:29:28;;;;;;;6.75;2.67;;;3.40;99.90;;;;;;5053094;28;20025;-69
2023/03/02 08:31:54;;;;;;;2.58;2.42;;;3.50;99.90;;;;;;5052680;28;20114;-71
2023/03/02 08:34:20;;;;;;;18.92;9.13;;;3.50;99.90;;;;;;5052935;28;20059;-71
2023/03/02 08:36:46;;;;;;;5.07;2.40;;;3.60;99.90;;;;;;5052495;28;20020;-70
2023/03/02 08:39:12;;;;;;;5.43;3.47;;;3.90;99.90;;;;;;5052715;28;20453;-70
2023/03/02 08:41:37;;;;;;;10.00;3.38;;;4.00;99.90;;;;;;5052500;28;20472;-70
2023/03/02 08:44:03;;;;;;;2.50;1.70;;;4.20;99.90;;;;;;5043115;28;20029;-70
2023/03/02 08:46:30;;;;;;;4.47;3.08;;;4.20;99.90;;;;;;5048322;28;20078;-74
2023/03/02 08:48:56;;;;;;;9.82;5.40;;;4.50;99.90;;;;;;5047294;28;20469;-74
2023/03/02 08:51:24;;;;;;;1.33;1.10;;;4.40;99.90;;;;;;5048081;28;20113;-71
2023/03/02 08:53:53;;;;;;;4.63;4.20;;;4.50;99.90;;;;;;5048878;28;20024;-76
2023/03/02 08:56:26;;;;;;;3.80;3.38;;;4.50;99.90;;;;;;5048110;28;20031;-75
2023/03/02 08:58:54;;;;;;;1.13;0.93;;;4.40;99.90;;;;;;5048489;28;20033;-75
2023/03/02 09:01:27;;;;;;;1.45;1.35;;;4.50;99.90;;;;;;5047697;28;20036;-76
2023/03/02 09:03:53;;;;;;;3.67;3.35;;;4.60;99.90;;;;;;5048120;28;20435;-76
2023/03/02 09:06:19;;;;;;;0.68;0.68;;;4.70;99.90;;;;;;5047107;28;20104;-75
2023/03/02 09:08:45;;;;;;;2.35;2.20;;;4.80;99.90;;;;;;5046949;28;20025;-75
2023/03/02 09:11:12;;;;;;;2.47;1.70;;;5.00;99.90;;;;;;5046533;28;20493;-75
2023/03/02 09:13:37;;;;;;;0.45;0.40;;;4.90;99.90;;;;;;5041850;28;20075;-75
2023/03/02 09:16:04;;;;;;;6.50;4.13;;;5.00;99.90;;;;;;5048129;28;20059;-75
2023/03/02 09:18:30;;;;;;;11.13;3.60;;;5.30;99.90;;;;;;5047756;28;20131;-75
2023/03/02 09:20:57;;;;;;;1.58;1.50;;;5.60;99.90;;;;;;5048612;28;20041;-75
2023/03/02 09:23:24;;;;;;;1.10;1.00;;;5.50;99.90;;;;;;5047800;28;20100;-75
2023/03/02 09:25:50;;;;;;;13.23;5.35;;;5.50;99.90;;;;;;5048274;28;20510;-76
2023/03/02 09:28:16;;;;;;;1.45;1.35;;;5.50;99.90;;;;;;5047262;28;20123;-76
2023/03/02 09:30:49;;;;;;;3.63;3.35;;;6.00;99.90;;;;;;5047954;28;20069;-74
2023/03/02 09:33:15;;;;;;;6.22;2.47;;;6.40;99.90;;;;;;5048082;28;20033;-76
2023/03/02 09:35:40;;;;;;;7.53;3.28;;;6.40;99.90;;;;;;5049078;28;20017;-75
2023/03/02 09:38:06;;;;;;;0.20;0.20;;;6.40;99.90;;;;;;5050207;28;20574;-75
2023/03/02 09:40:37;;;;;;;1.60;1.50;;;6.60;99.90;;;;;;5050863;28;20466;-75
2023/03/02 09:43:16;;;;;;;2.17;2.08;;;6.70;99.90;;;;;;5051892;28;20037;-76
2023/03/02 09:46:14;;;;;;;13.30;4.47;;;6.70;99.90;;;;;;5049931;28;20041;-76
2023/03/02 09:48:56;;;;;;;2.47;0.50;;;6.80;99.90;;;;;;5051832;28;20037;-75
2023/03/02 09:51:38;;;;;;;5.88;3.00;;;7.20;99.90;;;;;;5036955;28;20047;-75
2023/03/02 09:54:10;;;;;;;15.98;6.20;;;7.30;99.90;;;;;;5046856;28;20017;-75
2023/03/02 09:56:42;;;;;;;2.97;1.13;;;7.00;99.90;;;;;;5046614;28;20044;-75
2023/03/02 09:59:23;;;;;;;5.22;2.28;;;7.10;99.90;;;;;;5048023;28;20021;-75
2023/03/02 10:01:55;;;;;;;16.92;2.88;;;7.30;99.90;;;;;;5049069;28;20116;-75
2023/03/02 10:04:25;;;;;;;21.63;6.93;;;7.60;99.90;;;;;;5051301;28;20028;-75
2023/03/02 10:06:56;;;;;;;2.83;1.38;;;7.50;99.40;;;;;;5052246;28;20490;-75
2023/03/02 10:09:22;;;;;;;0.40;0.40;;;7.80;99.90;;;;;;5051173;28;20472;-75
2023/03/02 10:12:06;;;;;;;6.97;3.53;;;8.00;99.60;;;;;;5049815;28;20047;-74
2023/03/02 10:14:42;;;;;;;12.60;3.30;;;7.90;99.40;;;;;;5051009;28;20036;-75
2023/03/02 10:18:10;;;;;;;1.90;1.73;;;8.40;99.20;;;;;;5050433;28;20029;-75
2023/03/02 10:21:07;;;;;;;3.65;1.38;;;8.70;98.70;;;;;;4987013;28;20043;-76
2023/03/02 10:23:39;;;;;;;3.60;2.60;;;8.80;97.50;;;;;;5044102;28;20060;-76
2023/03/02 10:26:22;;;;;;;6.60;4.30;;;8.90;97.50;;;;;;5053217;28;20462;-76
2023/03/02 10:29:12;;;;;;;5.20;3.17;;;8.40;97.70;;;;;;5054360;28;20025;-75
2023/03/02 10:31:40;;;;;;;2.85;2.13;;;8.10;98.90;;;;;;5042151;28;20049;-76
2023/03/02 10:34:10;;;;;;;0.70;0.70;;;8.20;98.30;;;;;;5055078;28;20469;-75
2023/03/02 10:36:42;;;;;;;7.22;2.40;;;8.10;98.60;;;;;;5055033;28;20033;-75
2023/03/02 10:39:16;;;;;;;2.00;1.55;;;8.40;98.70;;;;;;5054434;28;20388;-75
2023/03/02 10:42:03;;;;;;;2.83;2.05;;;8.80;97.70;;;;;;5054914;28;20025;-75
2023/03/02 10:44:39;;;;;;;4.07;2.28;;;9.20;98.00;;;;;;5054746;28;20025;-75
2023/03/02 10:47:07;;;;;;;4.85;4.05;;;9.30;97.00;;;;;;5055260;28;20068;-75
2023/03/02 10:49:41;;;;;;;6.18;2.67;;;9.40;96.50;;;;;;5054640;28;20377;-75
2023/03/02 10:52:20;;;;;;;2.42;2.30;;;10.00;96.30;;;;;;5053052;28;20033;-75
2023/03/02 10:54:46;;;;;;;1.60;1.15;;;10.50;95.00;;;;;;5054510;28;20025;-75
2023/03/02 10:57:27;;;;;;;9.32;3.60;;;11.10;94.00;;;;;;5054839;28;20025;-75
2023/03/02 11:00:03;;;;;;;1.30;1.20;;;10.20;93.50;;;;;;5054362;28;20143;-76
2023/03/02 11:02:36;;;;;;;3.13;2.13;;;10.80;93.90;;;;;;5054595;28;20060;-76
2023/03/02 11:05:36;;;;;;;4.15;2.20;;;11.10;93.40;;;;;;5054287;28;20147;-76
2023/03/02 11:08:09;;;;;;;3.28;2.80;;;10.90;94.30;;;;;;5053872;28;20043;-75
2023/03/02 11:10:38;;;;;;;2.03;1.17;;;10.50;93.40;;;;;;5054185;28;20378;-76
2023/03/02 11:13:22;;;;;;;3.75;1.90;;;11.50;92.70;;;;;;5053715;28;20454;-78
2023/03/02 11:15:50;;;;;;;6.95;4.00;;;12.40;91.80;;;;;;5046709;28;20031;-76
2023/03/02 11:18:30;;;;;;;13.25;3.17;;;12.20;90.70;;;;;;5049983;28;20052;-78
2023/03/02 11:21:19;;;;;;;2.35;0.85;;;11.80;91.70;;;;;;5049837;28;20033;-78
2023/03/02 11:24:13;;;;;;;0.75;0.75;;;12.90;91.00;;;;;;5049792;28;20025;-78
2023/03/02 11:26:41;;;;;;;0.73;0.73;;;13.50;89.40;;;;;;5046083;28;20028;-77
2023/03/02 11:29:37;;;;;;;1.25;1.25;;;13.10;90.30;;;;;;5050271;28;20029;-79
2023/03/02 11:32:12;;;;;;;0.60;0.60;;;14.00;88.40;;;;;;5048221;28;20136;-78
2023/03/02 11:34:50;;;;;;;1.70;1.08;;;14.40;88.20;;;;;;5049341;28;20421;-79
2023/03/02 11:37:24;;;;;;;4.90;3.08;;;14.50;85.80;;;;;;5049680;28;20048;-79
2023/03/02 11:39:59;;;;;;;4.07;2.33;;;14.30;83.70;;;;;;5047865;28;20096;-79
2023/03/02 11:42:43;;;;;;;8.85;5.63;;;13.70;87.00;;;;;;5031680;28;20036;-79
2023/03/02 11:45:12;;;;;;;6.10;4.30;;;13.50;87.10;;;;;;5044330;28;20025;-78
2023/03/02 11:47:41;;;;;;;7.65;3.75;;;14.00;86.10;;;;;;5041388;28;20033;-79
2023/03/02 11:50:11;;;;;;;1.42;1.20;;;13.80;86.40;;;;;;5043617;28;20033;-78
2023/03/02 11:52:40;;;;;;;6.18;4.90;;;14.30;86.50;;;;;;5046130;28;20389;-74
2023/03/02 11:55:27;;;;;;;8.30;2.45;;;14.80;84.40;;;;;;5052947;28;20025;-77
2023/03/02 11:57:58;;;;;;;17.27;7.55;;;14.70;84.20;;;;;;5052005;28;20029;-79
2023/03/02 12:00:43;;;;;;;4.40;4.00;;;14.10;84.80;;;;;;5053000;28;20029;-83
2023/03/02 12:03:14;;;;;;;6.03;1.52;;;15.00;83.20;;;;;;5052068;28;20053;-81
2023/03/02 12:05:42;;;;;;;;;;;15.30;83.30;;;;;;5053089;28;20078;-82
2023/03/02 12:08:33;;;;;;;2.53;1.65;;;15.40;83.30;;;;;;5053040;28;19904;-81
2023/03/02 12:11:02;;;;;;;;;;;15.80;83.10;;;;;;5046491;28;20055;-82
2023/03/02 12:13:29;;;;;;;5.75;4.13;;;16.40;82.70;;;;;;5053163;28;20374;-83
2023/03/02 12:15:55;;;;;;;7.40;4.28;;;17.20;80.30;;;;;;5052768;28;20100;-80
2023/03/02 12:18:21;;;;;;;3.97;1.45;;;16.50;79.40;;;;;;5052470;28;20048;-83
2023/03/02 12:21:04;;;;;;;2.33;1.55;;;16.00;81.00;;;;;;5052602;28;20541;-82
2023/03/02 12:23:32;;;;;;;3.20;1.60;;;17.10;80.70;;;;;;5052699;28;20079;-82
2023/03/02 12:26:30;;;;;;;2.05;1.85;;;17.40;78.80;;;;;;5052404;28;20032;-83
2023/03/02 12:29:12;;;;;;;12.65;4.18;;;16.60;79.90;;;;;;5047644;28;20385;-83
2023/03/02 12:31:45;;;;;;;3.55;2.03;;;16.20;79.60;;;;;;5052490;28;20477;-83
2023/03/02 12:34:23;;;;;;;3.17;1.80;;;16.60;80.20;;;;;;5052316;28;20025;-83
2023/03/02 12:36:52;;;;;;;5.05;2.60;;;16.60;78.90;;;;;;5052746;28;20032;-83
2023/03/02 12:39:36;;;;;;;3.97;1.90;;;17.20;79.60;;;;;;5043015;28;20029;-83
2023/03/02 12:42:40;;;;;;;4.00;1.17;;;17.90;76.30;;;;;;5052452;28;20045;-84
2023/03/02 12:45:24;;;;;;;1.60;1.38;;;18.00;75.90;;;;;;5045472;28;20048;-82
2023/03/02 12:47:59;;;;;;;4.72;4.25;;;17.40;77.20;;;;;;5050830;28;20032;-80
2023/03/02 12:50:29;;;;;;;8.25;4.63;;;17.30;76.50;;;;;;5052783;28;20124;-82
2023/03/02 12:53:04;;;;;;;1.58;0.68;;;16.40;76.40;;;;;;5051276;28;20465;-83
2023/03/02 12:55:30;;;;;;;1.15;0.88;;;16.70;77.00;;;;;;5052821;28;20037;-82
2023/03/02 12:58:01;;;;;;;2.90;2.45;;;17.80;77.30;;;;;;5050916;28;20029;-79
2023/03/02 13:00:32;;;;;;;4.40;3.20;;;18.00;76.00;;;;;;5052328;28;20048;-80
2023/03/02 13:03:00;;;;;;;1.70;1.08;;;17.30;75.10;;;;;;5052043;28;20025;-82
2023/03/02 13:05:29;;;;;;;0.73;0.40;;;17.70;77.30;;;;;;5052351;28;20036;-82
2023/03/02 13:07:57;;;;;;;14.43;4.80;;;19.10;75.30;;;;;;5050856;28;20029;-81
2023/03/02 13:10:39;;;;;;;5.95;3.47;;;18.70;74.50;;;;;;5052452;28;20041;-82